Terminal Aerodrome Forecast
Issued by NWS

Home | Current Version | Previous Version | Text Only | Print | Product List | Glossary On
Versions: 1 2 3 4 5 6 7 8 9 10 11 12 13 14 15 16
000
FTUS43 KIND 010500
TAFHUF
TAF
KHUF 010527Z 0106/0206 12006KT 1SM -SN VV012
      TEMPO 0106/0110 VRB03KT 1/2SM SN FZFG VV008
     FM011000 VRB03KT 1SM -SN OVC004
     FM011500 31004KT 1SM -SHSN BR OVC009
     FM011900 29005KT 3SM BR OVC015
     FM020300 30007KT P6SM OVC025=

USA.gov is the U.S. government's official web portal to all federal, state and local government web resources and services.